Kansas City, KS

7:46 AM CST on March 03, 2015 (GMT -0600)
Lee's Summit Municipal | Change Station
CLOSE
Current Station
Airport
Location: Lee's Summit,
Elevation: 1004 ft
Nearby Weather Stations

Elev 1004 ft 38.96 °N, 94.37 °W | Updated 23 minutes ago

Overcast
Overcast
37 °F
Feels Like 28 °F
N
14
Wind Variable Wind from SSW
Gusts 23 mph

Today
High -- | Low -- °F
--% Chance of Precip.
Yesterday
High -- | Low -- °F
Precip. -- in
6:48 AM 6:12 PM
Waxing Gibbous, 96% visible
Pressure 29.73 in
Visibility 1.5 miles
Clouds Overcast 300 ft
Windchill 28 °F
Dew Point 36 °F
Humidity 96%
Rainfall 0.00 in
Snow Depth Not available.
UV 0 out of 12
Pollen 2.90 out of 12
Air Quality Not available.
Flu Activity Not available.
SPECI KLXT 031323Z AUTO 21012G20KT 1 1/2SM BR OVC003 03/02 A2973 RMK AO2 T00280022

More Conditions Fewer Conditions

Pressure 29.73 in
Visibility 1.5 miles
Clouds Overcast 300 ft
Windchill 28 °F
Dew Point 36 °F
Humidity 96%
Rainfall 0.00 in
Snow Depth Not available.
UV 0 out of 12
Pollen 2.90 out of 12
Air Quality Not available.
Flu Activity Not available.
SPECI KLXT 031323Z AUTO 21012G20KT 1 1/2SM BR OVC003 03/02 A2973 RMK AO2 T00280022

More Conditions Fewer Conditions

10-Day Weather Forecast

Almanac

Astronomy

Mar. 03, 2015 Rise Set
Actual Time
Civil Twilight
Nautical Twilight
Astronomical Twilight
Moon
Length of Visible Light
Length of Day
Tomorrow will be .
, % of the Moon is Illuminated

Today's Extremes

State Highs State Lows

Community

WunderPhotos

Upload Photos

1,802,102 photos uploaded!

WunderBlogs® & News

Nearby

Air Quality

  Air Quality AQ Index Pollutant
Not available.

Snow Depth

Station Depth Elevation

Earthquake Activity

City Distance Mag. Time & Date
Minimum magnitude displayed is 2.5.

Coastal Water Temperatures

Place Temperature

Nearby Weather Stations